Time;durP1;ratioP1;P1;durP2;ratioP2;P2;SDS_P1;SDS_P2;PMS_P1;PMS_P2;Temp;Humidity;BMP_temperature;BMP_pressure;BME280_temperature;BME280_humidity;BME280_pressure;Samples;Min_cycle;Max_cycle;Signal;HPM_P1;HPM_P2
2023/06/06 00:01:40;;;;;;;6.27;5.67;;;;;;;18.29;nan;99332.41;5046002;28;20457;-80
2023/06/06 00:04:05;;;;;;;7.20;5.90;;;;;;;18.19;nan;99326.34;5043578;28;20228;-80
2023/06/06 00:06:33;;;;;;;10.63;6.60;;;;;;;18.13;nan;99328.63;5043051;28;20434;-79
2023/06/06 00:08:59;;;;;;;6.97;6.07;;;;;;;18.14;nan;99334.75;5045316;28;20488;-79
2023/06/06 00:11:25;;;;;;;7.23;5.70;;;;;;;18.15;nan;99336.47;5044690;28;20466;-79
2023/06/06 00:13:50;;;;;;;8.50;6.47;;;;;;;18.12;nan;99334.09;5046205;28;20859;-79
2023/06/06 00:16:16;;;;;;;7.40;6.03;;;;;;;18.09;nan;99331.72;5044184;28;20687;-80
2023/06/06 00:18:45;;;;;;;6.53;5.83;;;;;;;18.03;nan;99330.53;5044205;28;20216;-80
2023/06/06 00:21:12;;;;;;;7.00;5.37;;;;;;;17.98;nan;99329.31;5042602;28;21143;-80
2023/06/06 00:23:37;;;;;;;7.73;5.97;;;;;;;17.92;nan;99336.06;5047391;28;20476;-79
2023/06/06 00:26:02;;;;;;;5.77;5.20;;;;;;;17.80;nan;99327.50;5044493;28;20960;-80
2023/06/06 00:28:28;;;;;;;7.87;5.97;;;;;;;17.72;nan;99335.34;5042773;28;20226;-80
2023/06/06 00:30:53;;;;;;;7.53;6.20;;;;;;;17.70;nan;99330.16;5041015;28;20224;-79
2023/06/06 00:33:19;;;;;;;6.60;6.00;;;;;;;17.70;nan;99337.31;5044720;28;20691;-79
2023/06/06 00:35:44;;;;;;;6.70;6.10;;;;;;;17.66;nan;99335.91;5043680;28;20222;-79
2023/06/06 00:38:10;;;;;;;7.90;6.00;;;;;;;17.67;nan;99340.28;5042256;28;20692;-79
2023/06/06 00:40:35;;;;;;;5.87;5.37;;;;;;;17.64;nan;99340.56;5043744;28;21018;-79
2023/06/06 00:43:01;;;;;;;8.97;6.00;;;;;;;17.63;nan;99338.88;5041047;28;20228;-80
2023/06/06 00:45:26;;;;;;;8.43;5.90;;;;;;;17.62;nan;99335.41;5044459;28;20240;-78
2023/06/06 00:47:52;;;;;;;5.70;5.20;;;;;;;17.61;nan;99338.22;5042283;28;20217;-79
2023/06/06 00:50:18;;;;;;;6.30;4.87;;;;;;;17.54;nan;99337.13;5043805;28;20842;-81
2023/06/06 00:52:46;;;;;;;7.10;5.60;;;;;;;17.48;nan;99335.91;5051740;28;20218;-79
2023/06/06 00:55:15;;;;;;;9.03;6.10;;;;;;;17.45;nan;99337.03;5043480;28;20480;-80
2023/06/06 00:57:43;;;;;;;5.77;5.17;;;;;;;17.37;nan;99339.59;5043442;28;20500;-80
2023/06/06 01:00:10;;;;;;;6.83;5.93;;;;;;;17.32;nan;99331.25;5058596;28;20470;-79
2023/06/06 01:02:37;;;;;;;7.60;5.80;;;;;;;17.29;nan;99331.53;5044117;28;20453;-80
2023/06/06 01:05:05;;;;;;;5.80;5.27;;;;;;;17.27;nan;99336.16;5041019;28;20473;-81
2023/06/06 01:07:31;;;;;;;5.63;5.17;;;;;;;17.24;nan;99331.97;5042791;28;20461;-80
2023/06/06 01:09:57;;;;;;;5.87;5.30;;;;;;;17.18;nan;99337.88;5043238;28;20484;-80
2023/06/06 01:12:29;;;;;;;6.43;5.80;;;;;;;17.13;nan;99349.91;5040468;28;20454;-80
2023/06/06 01:15:09;;;;;;;6.90;4.87;;;;;;;17.09;nan;99343.22;5044040;28;20842;-79
2023/06/06 01:17:36;;;;;;;6.57;5.93;;;;;;;16.99;nan;99338.78;5040271;28;20460;-80
2023/06/06 01:20:06;;;;;;;6.57;6.00;;;;;;;16.85;nan;99347.22;5045240;28;20468;-79
2023/06/06 01:22:33;;;;;;;6.77;6.10;;;;;;;16.70;nan;99345.97;5046694;28;20590;-80
2023/06/06 01:24:58;;;;;;;7.03;6.23;;;;;;;16.54;nan;99347.38;5043016;28;20461;-80
2023/06/06 01:27:26;;;;;;;5.83;5.23;;;;;;;16.45;nan;99344.75;5046369;28;20481;-78
2023/06/06 01:29:52;;;;;;;8.30;6.97;;;;;;;16.37;nan;99348.13;5045757;28;20757;-80
2023/06/06 01:32:42;;;;;;;6.07;5.47;;;;;;;16.30;nan;99353.13;5047030;28;20488;-80
2023/06/06 01:35:14;;;;;;;6.13;5.53;;;;;;;16.26;nan;99345.63;5045228;28;20195;-80
2023/06/06 01:37:46;;;;;;;6.57;5.90;;;;;;;16.22;nan;99346.84;5056543;28;20826;-80
2023/06/06 01:40:13;;;;;;;7.63;6.93;;;;;;;16.20;nan;99352.28;5047304;28;20466;-80
2023/06/06 01:42:44;;;;;;;8.00;6.00;;;;;;;16.19;nan;99355.91;5045120;28;20465;-80
2023/06/06 01:45:12;;;;;;;6.70;6.10;;;;;;;16.18;nan;99354.25;5044352;28;20481;-80
2023/06/06 01:47:38;;;;;;;7.00;6.00;;;;;;;16.24;nan;99352.84;5060259;28;20473;-80
2023/06/06 01:50:07;;;;;;;7.90;7.10;;;;;;;16.30;nan;99357.59;5057096;28;20937;-80
2023/06/06 01:52:37;;;;;;;6.67;6.03;;;;;;;16.33;nan;99358.13;5044896;28;20568;-80
2023/06/06 01:55:05;;;;;;;5.93;5.37;;;;;;;16.37;nan;99354.25;5056539;28;20465;-80
2023/06/06 01:57:31;;;;;;;6.90;4.80;;;;;;;16.40;nan;99352.28;5045857;28;20481;-80
2023/06/06 01:59:58;;;;;;;7.03;5.40;;;;;;;16.40;nan;99349.66;5043920;28;20491;-81
2023/06/06 02:02:23;;;;;;;5.63;5.13;;;;;;;16.41;nan;99348.66;5042093;28;20481;-80
2023/06/06 02:04:49;;;;;;;6.57;5.10;;;;;;;16.43;nan;99357.31;5046214;28;20216;-80
2023/06/06 02:07:16;;;;;;;5.60;5.10;;;;;;;16.43;nan;99352.00;5045058;28;20218;-80
2023/06/06 02:09:42;;;;;;;6.10;5.37;;;;;;;16.43;nan;99359.97;5055911;28;20237;-79
2023/06/06 02:12:09;;;;;;;5.77;4.93;;;;;;;16.36;nan;99352.59;5045846;28;20497;-81
2023/06/06 02:14:34;;;;;;;6.17;5.17;;;;;;;16.32;nan;99359.13;5043405;28;20538;-81
2023/06/06 02:17:00;;;;;;;7.53;6.33;;;;;;;16.33;nan;99360.78;5046930;28;21268;-79
2023/06/06 02:19:27;;;;;;;7.10;5.00;;;;;;;16.31;nan;99364.56;5045740;28;20328;-80
2023/06/06 02:21:52;;;;;;;5.57;5.00;;;;;;;16.31;nan;99361.91;5041205;28;21324;-80
2023/06/06 02:24:18;;;;;;;7.10;5.53;;;;;;;16.31;nan;99364.56;5045376;28;20982;-80
2023/06/06 02:26:44;;;;;;;5.77;5.27;;;;;;;16.22;nan;99362.75;5046051;28;20215;-81
2023/06/06 02:29:10;;;;;;;6.23;5.53;;;;;;;16.12;nan;99370.69;5042505;28;20227;-80
2023/06/06 02:31:39;;;;;;;7.80;7.10;;;;;;;16.01;nan;99373.47;5046255;28;20978;-80
2023/06/06 02:34:06;;;;;;;6.82;6.22;;;;;;;15.91;nan;99370.84;5043337;28;20216;-80
2023/06/06 02:36:31;;;;;;;6.33;5.53;;;;;;;15.87;nan;99372.06;5045112;28;21143;-81
2023/06/06 02:38:57;;;;;;;5.97;5.10;;;;;;;15.81;nan;99375.28;5045678;28;20716;-80
2023/06/06 02:41:23;;;;;;;7.40;6.40;;;;;;;15.77;nan;99379.16;5044713;28;20707;-79
2023/06/06 02:43:49;;;;;;;6.20;5.07;;;;;;;15.68;nan;99383.44;5043342;28;20266;-80
2023/06/06 02:46:15;;;;;;;6.20;5.50;;;;;;;15.59;nan;99384.25;5044130;28;21121;-80
2023/06/06 02:48:45;;;;;;;6.00;4.97;;;;;;;15.57;nan;99380.91;5043871;28;20488;-79
2023/06/06 02:51:11;;;;;;;7.38;5.40;;;;;;;15.57;nan;99380.91;5056638;28;20524;-80
2023/06/06 02:53:40;;;;;;;6.97;5.63;;;;;;;15.55;nan;99382.84;5043967;28;20311;-80
2023/06/06 02:56:07;;;;;;;6.80;5.65;;;;;;;15.51;nan;99382.28;5046461;28;20619;-79
2023/06/06 02:58:33;;;;;;;5.05;4.55;;;;;;;15.52;nan;99386.59;5044080;28;20214;-80
2023/06/06 03:01:01;;;;;;;6.50;5.57;;;;;;;15.51;nan;99382.28;5055844;28;20252;-80
2023/06/06 03:03:26;;;;;;;6.53;5.60;;;;;;;15.49;nan;99390.34;5040636;28;20267;-80
2023/06/06 03:05:54;;;;;;;7.07;5.47;;;;;;;15.52;nan;99388.41;5042400;28;20701;-80
2023/06/06 03:08:20;;;;;;;5.97;5.45;;;;;;;15.59;nan;99393.03;5042640;28;20583;-80
2023/06/06 03:10:47;;;;;;;5.85;4.72;;;;;;;15.66;nan;99390.66;5040775;28;20515;-80
2023/06/06 03:13:13;;;;;;;6.60;5.68;;;;;;;15.67;nan;99377.31;5042503;28;20500;-80
2023/06/06 03:15:44;;;;;;;6.50;5.70;;;;;;;15.68;nan;99397.53;5042449;28;20230;-80
2023/06/06 03:18:11;;;;;;;11.05;5.75;;;;;;;15.73;nan;99398.94;5042005;28;20899;-80
2023/06/06 03:20:41;;;;;;;5.90;5.40;;;;;;;15.77;nan;99395.03;5043237;28;20904;-80
2023/06/06 03:23:12;;;;;;;5.67;5.17;;;;;;;15.77;nan;99397.69;5055696;28;20205;-80
2023/06/06 03:25:45;;;;;;;6.72;5.15;;;;;;;15.75;nan;99400.50;5043786;28;20472;-80
2023/06/06 03:28:13;;;;;;;6.40;5.68;;;;;;;15.77;nan;99414.44;5045308;28;20224;-80
2023/06/06 03:30:39;;;;;;;5.95;5.22;;;;;;;15.78;nan;99402.88;5044862;28;20263;-80
2023/06/06 03:33:08;;;;;;;7.93;5.53;;;;;;;15.78;nan;99407.34;5042815;28;20221;-80
2023/06/06 03:35:35;;;;;;;6.15;5.43;;;;;;;15.78;nan;99415.28;5049268;28;20459;-80
2023/06/06 03:38:04;;;;;;;6.85;5.28;;;;;;;15.75;nan;99410.25;5038597;28;20209;-81
2023/06/06 03:40:31;;;;;;;5.70;5.03;;;;;;;15.68;nan;99408.13;5039445;28;20250;-79
2023/06/06 03:42:57;;;;;;;5.40;5.00;;;;;;;15.62;nan;99415.75;5036489;28;20216;-79
2023/06/06 03:45:23;;;;;;;6.55;6.05;;;;;;;15.52;nan;99410.41;5036001;28;20571;-80
2023/06/06 03:47:51;;;;;;;6.35;4.68;;;;;;;15.44;nan;99410.25;5034128;22;20247;-77
2023/06/06 03:50:21;;;;;;;6.07;4.68;;;;;;;15.36;nan;99408.25;4993694;28;20316;-77
2023/06/06 03:52:47;;;;;;;7.32;5.35;;;;;;;15.26;nan;99415.34;5014070;28;20223;-77
2023/06/06 03:55:13;;;;;;;5.87;5.37;;;;;;;15.19;nan;99414.19;5015372;28;20221;-77
2023/06/06 03:57:39;;;;;;;7.93;4.60;;;;;;;15.10;nan;99414.97;5030212;28;20981;-77
2023/06/06 04:00:16;;;;;;;6.47;4.93;;;;;;;15.05;nan;99418.00;5012947;28;20224;-77
2023/06/06 04:02:46;;;;;;;5.57;5.07;;;;;;;15.10;nan;99421.09;5012910;28;20197;-77
2023/06/06 04:05:12;;;;;;;6.28;5.68;;;;;;;15.19;nan;99411.53;5018597;28;20481;-77
2023/06/06 04:07:39;;;;;;;6.13;5.15;;;;;;;15.23;nan;99416.44;5010355;28;20755;-77
2023/06/06 04:10:05;;;;;;;6.70;5.40;;;;;;;15.25;nan;99411.84;5013381;28;20580;-77
2023/06/06 04:12:30;;;;;;;6.30;4.77;;;;;;;15.30;nan;99421.19;5013567;28;20429;-77
2023/06/06 04:14:56;;;;;;;6.17;5.57;;;;;;;15.34;nan;99415.50;5014626;28;20463;-77
2023/06/06 04:17:23;;;;;;;7.63;5.03;;;;;;;15.35;nan;99427.75;5030271;28;20570;-77
2023/06/06 04:19:49;;;;;;;6.35;5.75;;;;;;;15.36;nan;99423.31;5014115;28;20244;-77
2023/06/06 04:22:15;;;;;;;7.13;5.18;;;;;;;15.42;nan;99430.75;5013627;28;20221;-77
2023/06/06 04:24:41;;;;;;;11.80;5.53;;;;;;;15.46;nan;99422.38;5013002;28;20261;-77
2023/06/06 04:27:07;;;;;;;6.20;5.60;;;;;;;15.48;nan;99438.97;5026801;28;20232;-77
2023/06/06 04:29:33;;;;;;;5.75;4.85;;;;;;;15.54;nan;99427.00;5028197;28;20226;-77
2023/06/06 04:32:00;;;;;;;6.32;4.80;;;;;;;15.63;nan;99428.84;5026541;28;20214;-74
2023/06/06 04:34:29;;;;;;;7.57;5.70;;;;;;;15.75;nan;99431.44;5027855;28;20312;-74
2023/06/06 04:37:03;;;;;;;5.85;5.35;;;;;;;15.82;nan;99427.25;5027912;28;20222;-74
2023/06/06 04:39:31;;;;;;;6.07;5.30;;;;;;;15.94;nan;99426.19;5027347;28;20545;-74
2023/06/06 04:41:58;;;;;;;6.47;5.60;;;;;;;15.98;nan;99437.34;5013306;28;20215;-74
2023/06/06 04:44:27;;;;;;;5.50;4.95;;;;;;;15.98;nan;99440.81;5013194;28;20205;-74
2023/06/06 04:47:00;;;;;;;6.28;5.68;;;;;;;16.05;nan;99435.81;5011436;28;20252;-74
2023/06/06 04:49:35;;;;;;;8.52;6.45;;;;;;;16.27;nan;99440.88;5012752;28;20222;-75
2023/06/06 04:52:03;;;;;;;5.47;5.07;;;;;;;16.66;nan;99437.38;5027060;28;20304;-75
2023/06/06 04:54:30;;;;;;;6.07;5.47;;;;;;;17.10;nan;99430.66;5012081;28;20651;-74
2023/06/06 04:56:56;;;;;;;11.13;6.90;;;;;;;17.59;nan;99436.63;5011260;28;20645;-75
2023/06/06 04:59:22;;;;;;;5.57;5.07;;;;;;;18.10;nan;99437.09;5012965;28;20506;-74
2023/06/06 05:01:48;;;;;;;7.27;4.93;;;;;;;18.65;nan;99441.41;5012697;28;20557;-75
2023/06/06 05:04:15;;;;;;;8.87;6.00;;;;;;;19.18;nan;99438.69;5011379;28;20204;-75
2023/06/06 05:06:40;;;;;;;5.90;5.00;;;;;;;19.66;nan;99434.63;5012754;28;20479;-75
2023/06/06 05:09:07;;;;;;;5.50;4.97;;;;;;;20.13;nan;99438.63;5012562;28;21022;-75
2023/06/06 05:11:36;;;;;;;7.30;5.10;;;;;;;20.59;nan;99432.88;5012714;28;20473;-75
2023/06/06 05:14:02;;;;;;;5.63;3.97;;;;;;;20.95;nan;99425.34;5010742;28;20442;-75
2023/06/06 05:16:27;;;;;;;5.77;4.40;;;;;;;21.23;nan;99433.00;5012078;28;20844;-75
2023/06/06 05:18:53;;;;;;;5.87;4.67;;;;;;;21.35;nan;99432.44;5011117;28;20458;-75
2023/06/06 05:21:19;;;;;;;4.80;3.93;;;;;;;21.49;nan;99436.25;5011957;28;20341;-76
2023/06/06 05:23:45;;;;;;;4.47;4.07;;;;;;;21.69;nan;99436.72;5013318;28;20217;-75
2023/06/06 05:26:10;;;;;;;4.33;3.93;;;;;;;22.01;nan;99434.91;5012305;28;20475;-75
2023/06/06 05:28:37;;;;;;;5.70;4.07;;;;;;;22.35;nan;99428.34;5011794;28;20821;-76
2023/06/06 05:31:02;;;;;;;3.70;3.40;;;;;;;22.62;nan;99432.31;5012177;28;20721;-75
2023/06/06 05:33:30;;;;;;;6.57;4.03;;;;;;;22.84;nan;99430.63;5012881;28;20488;-75
2023/06/06 05:35:56;;;;;;;5.33;3.83;;;;;;;23.03;nan;99438.19;5011833;28;20308;-75
2023/06/06 05:38:22;;;;;;;6.67;3.80;;;;;;;23.25;nan;99444.50;5011394;28;20915;-76
2023/06/06 05:40:48;;;;;;;5.43;4.20;;;;;;;23.47;nan;99440.09;5012205;28;20207;-75
2023/06/06 05:43:14;;;;;;;5.20;4.50;;;;;;;23.70;nan;99441.81;5012151;28;20977;-75
2023/06/06 05:45:40;;;;;;;4.53;3.70;;;;;;;23.91;nan;99447.28;5011821;28;20297;-75
2023/06/06 05:48:05;;;;;;;4.73;4.33;;;;;;;23.97;nan;99443.00;5011730;28;20494;-75
2023/06/06 05:50:31;;;;;;;5.33;4.40;;;;;;;24.08;nan;99451.41;5011898;28;20307;-75
2023/06/06 05:52:56;;;;;;;4.50;4.10;;;;;;;24.27;nan;99436.53;5012394;28;20266;-75
2023/06/06 05:55:33;;;;;;;4.80;3.30;;;;;;;24.53;nan;99432.50;5010388;28;20231;-76
2023/06/06 05:58:00;;;;;;;7.00;4.63;;;;;;;24.80;nan;99440.78;5012816;28;20219;-75
2023/06/06 06:00:27;;;;;;;4.73;4.23;;;;;;;25.13;nan;99443.72;5012049;28;20949;-76
2023/06/06 06:02:55;;;;;;;8.53;6.07;;;;;;;25.19;nan;99448.34;5009366;28;20528;-76
2023/06/06 06:05:22;;;;;;;3.80;3.40;;;;;;;25.25;nan;99446.72;5011613;28;20535;-76
2023/06/06 06:07:47;;;;;;;4.33;3.57;;;;;;;25.43;nan;99440.84;5015075;28;20462;-76
2023/06/06 06:10:14;;;;;;;9.97;4.67;;;;;;;25.65;nan;99436.22;5015863;28;20958;-75
2023/06/06 06:12:41;;;;;;;4.80;4.40;;;;;;;25.93;nan;99437.00;5016246;28;20204;-76
2023/06/06 06:15:08;;;;;;;8.43;4.40;;;;;;;26.04;nan;99440.97;5015268;28;20761;-75
2023/06/06 06:17:33;;;;;;;4.93;4.43;;;;;;;26.07;nan;99440.56;5014948;28;20553;-76
2023/06/06 06:20:03;;;;;;;6.40;4.67;;;;;;;26.11;nan;99441.78;5014714;28;20468;-75
2023/06/06 06:22:28;;;;;;;4.80;4.40;;;;;;;26.13;nan;99444.28;5015902;28;20225;-77
2023/06/06 06:24:54;;;;;;;6.10;4.10;;;;;;;26.21;nan;99438.72;5016235;28;20957;-75
2023/06/06 06:27:19;;;;;;;4.40;4.00;;;;;;;26.19;nan;99436.25;5013936;28;20313;-75
2023/06/06 06:29:45;;;;;;;6.07;4.30;;;;;;;26.15;nan;99435.00;5014546;28;20227;-76
2023/06/06 06:32:11;;;;;;;6.30;4.73;;;;;;;26.19;nan;99436.25;5013892;28;20573;-75
2023/06/06 06:34:36;;;;;;;5.10;4.63;;;;;;;26.38;nan;99439.16;5016208;28;20753;-76
2023/06/06 06:37:02;;;;;;;7.60;4.30;;;;;;;26.73;nan;99437.16;5028938;28;20218;-75
2023/06/06 06:39:27;;;;;;;6.97;4.23;;;;;;;26.96;nan;99439.47;5028434;28;20501;-75
2023/06/06 06:41:53;;;;;;;4.13;3.73;;;;;;;27.31;nan;99439.25;5010146;28;20202;-76
2023/06/06 06:44:18;;;;;;;6.33;4.90;;;;;;;27.72;nan;99430.00;5009882;28;20863;-76
2023/06/06 06:46:44;;;;;;;7.20;4.60;;;;;;;28.02;nan;99441.94;5010736;28;20633;-75
2023/06/06 06:49:17;;;;;;;4.30;3.90;;;;;;;28.27;nan;99443.03;5010478;28;20264;-76
2023/06/06 06:51:43;;;;;;;9.87;4.93;;;;;;;28.42;nan;99435.47;5009844;28;20195;-77
2023/06/06 06:54:11;;;;;;;5.07;4.47;;;;;;;28.58;nan;99445.78;5007734;28;20461;-75
2023/06/06 06:59:20;;;;;;;5.00;4.30;;;;;;;28.34;nan;99444.66;5355107;23;20540;-76
2023/06/06 07:01:49;;;;;;;5.50;4.27;;;;;;;28.24;nan;99449.72;5011018;28;21044;-76
2023/06/06 07:04:16;;;;;;;5.70;4.67;;;;;;;28.17;nan;99454.34;5008896;28;20500;-77
2023/06/06 07:06:43;;;;;;;10.40;4.43;;;;;;;28.31;nan;99450.50;5009675;28;20798;-77
2023/06/06 07:09:09;;;;;;;3.50;3.20;;;;;;;28.46;nan;99447.53;5010558;28;20958;-77
2023/06/06 07:11:34;;;;;;;5.13;4.43;;;;;;;28.57;nan;99449.56;5010581;28;20524;-77
2023/06/06 07:14:00;;;;;;;4.67;4.20;;;;;;;28.57;nan;99448.69;5008328;28;20978;-78
2023/06/06 07:16:25;;;;;;;4.97;4.53;;;;;;;28.76;nan;99453.16;5007481;28;20350;-77
2023/06/06 07:18:52;;;;;;;4.07;3.77;;;;;;;28.89;nan;99450.34;5008285;28;20203;-78
2023/06/06 07:21:22;;;;;;;4.10;3.53;;;;;;;28.98;nan;99439.25;5009006;28;20387;-78
2023/06/06 07:23:51;;;;;;;6.00;4.20;;;;;;;29.17;nan;99450.97;5009476;28;20483;-78
2023/06/06 07:26:17;;;;;;;5.63;4.13;;;;;;;29.26;nan;99445.03;5008785;28;20515;-78
2023/06/06 07:28:49;;;;;;;4.77;4.30;;;;;;;29.33;nan;99445.78;5007836;28;21016;-78
2023/06/06 07:31:15;;;;;;;5.63;4.53;;;;;;;29.46;nan;99449.41;5009826;28;20497;-78
2023/06/06 07:33:40;;;;;;;5.20;4.67;;;;;;;29.68;nan;99445.25;5009041;28;21072;-78
2023/06/06 07:36:10;;;;;;;5.90;4.10;;;;;;;29.81;nan;99438.81;5009356;28;20966;-78
2023/06/06 07:38:35;;;;;;;5.10;4.70;;;;;;;29.93;nan;99436.19;5010567;28;20214;-78
2023/06/06 07:41:01;;;;;;;8.40;4.53;;;;;;;30.04;nan;99437.31;5008000;28;20455;-78
2023/06/06 07:43:26;;;;;;;6.20;5.13;;;;;;;30.12;nan;99435.09;5008547;28;20289;-78
2023/06/06 07:45:52;;;;;;;7.53;4.40;;;;;;;30.23;nan;99436.22;5009152;28;20200;-78
2023/06/06 07:48:18;;;;;;;5.30;4.80;;;;;;;30.43;nan;99431.34;5008855;28;20738;-77
2023/06/06 07:50:44;;;;;;;5.43;4.93;;;;;;;30.68;nan;99427.63;5008637;28;20210;-78
2023/06/06 07:53:10;;;;;;;5.47;4.63;;;;;;;30.63;nan;99425.59;5008630;28;20828;-78
2023/06/06 07:55:37;;;;;;;4.40;4.00;;;;;;;30.58;nan;99422.78;5008439;28;20211;-78
2023/06/06 07:58:05;;;;;;;4.73;4.27;;;;;;;30.56;nan;99424.06;5009447;28;20858;-77
2023/06/06 08:00:30;;;;;;;5.67;5.13;;;;;;;30.60;nan;99420.66;5008969;28;20557;-78
2023/06/06 08:02:56;;;;;;;4.43;4.03;;;;;;;30.33;nan;99420.25;5009189;28;20550;-78
2023/06/06 08:05:22;;;;;;;5.70;4.73;;;;;;;30.25;nan;99428.69;5001307;28;20733;-78
2023/06/06 08:07:48;;;;;;;4.73;4.27;;;;;;;30.23;nan;99429.97;5007623;28;20853;-78
2023/06/06 08:10:14;;;;;;;5.63;4.73;;;;;;;30.22;nan;99431.84;5008659;28;20532;-78
2023/06/06 08:12:39;;;;;;;6.00;3.97;;;;;;;30.08;nan;99428.47;5008495;28;20466;-77
2023/06/06 08:15:06;;;;;;;10.30;4.80;;;;;;;29.70;nan;99434.16;5008003;28;20440;-78
2023/06/06 08:17:32;;;;;;;4.83;4.43;;;;;;;29.39;nan;99435.13;5008412;28;20238;-78
2023/06/06 08:19:57;;;;;;;6.83;4.60;;;;;;;29.11;nan;99429.16;5008680;28;20968;-78
2023/06/06 08:22:24;;;;;;;5.00;4.53;;;;;;;28.95;nan;99428.84;5007947;28;20203;-78
2023/06/06 08:24:52;;;;;;;11.00;5.20;;;;;;;28.87;nan;99432.69;5008026;28;20206;-78
2023/06/06 08:27:18;;;;;;;5.20;4.80;;;;;;;28.85;nan;99430.19;5008987;28;20564;-77
2023/06/06 08:29:43;;;;;;;4.60;4.20;;;;;;;28.70;nan;99426.16;5008190;28;20488;-77
2023/06/06 08:32:16;;;;;;;8.10;5.03;;;;;;;28.50;nan;99427.16;5008367;28;20203;-78
2023/06/06 08:34:45;;;;;;;5.67;4.67;;;;;;;28.43;nan;99429.06;5009106;28;20551;-77
2023/06/06 08:37:11;;;;;;;5.60;4.13;;;;;;;28.45;nan;99430.50;5008566;28;20462;-77
2023/06/06 08:39:36;;;;;;;4.87;4.47;;;;;;;28.49;nan;99430.91;5009208;28;20505;-78
2023/06/06 08:42:04;;;;;;;4.80;4.40;;;;;;;28.47;nan;99426.75;5008575;28;20266;-77
2023/06/06 08:44:33;;;;;;;4.43;3.73;;;;;;;28.53;nan;99431.28;5007960;28;20204;-78
2023/06/06 08:46:59;;;;;;;9.73;4.57;;;;;;;28.56;nan;99430.84;5008921;28;20588;-78
2023/06/06 08:49:27;;;;;;;7.83;5.70;;;;;;;28.58;nan;99418.75;5007347;28;20537;-78
2023/06/06 08:51:55;;;;;;;4.60;4.20;;;;;;;28.60;nan;99438.28;5005510;28;20524;-78
2023/06/06 08:54:20;;;;;;;5.40;4.57;;;;;;;28.62;nan;99422.66;5006546;28;20453;-78
2023/06/06 08:56:47;;;;;;;4.23;3.83;;;;;;;28.59;nan;99425.00;5005619;28;20528;-78
2023/06/06 08:59:14;;;;;;;6.67;4.43;;;;;;;28.60;nan;99421.25;5007598;28;20228;-78
2023/06/06 09:01:40;;;;;;;4.60;4.20;;;;;;;28.60;nan;99419.38;5009275;28;20443;-78
2023/06/06 09:04:07;;;;;;;5.57;4.77;;;;;;;28.57;nan;99416.28;5004181;28;20573;-78
2023/06/06 09:06:40;;;;;;;5.82;4.53;;;;;;;28.41;nan;99420.31;5007036;28;20529;-78
2023/06/06 09:09:09;;;;;;;4.60;3.90;;;;;;;28.53;nan;99415.88;5006911;28;20246;-78
2023/06/06 09:11:35;;;;;;;6.10;4.57;;;;;;;28.67;nan;99417.44;5005861;28;20469;-79
2023/06/06 09:14:09;;;;;;;5.30;4.80;;;;;;;28.81;nan;99418.19;5008015;28;20462;-78
2023/06/06 09:16:35;;;;;;;5.00;4.53;;;;;;;28.99;nan;99409.25;5005984;28;20235;-78
2023/06/06 09:19:02;;;;;;;5.30;4.77;;;;;;;29.11;nan;99403.97;5008270;28;20551;-78
2023/06/06 09:21:29;;;;;;;5.57;5.07;;;;;;;29.13;nan;99406.47;5006453;28;20230;-79
2023/06/06 09:23:55;;;;;;;5.43;4.70;;;;;;;29.05;nan;99410.28;5007598;28;20465;-79
2023/06/06 09:26:22;;;;;;;4.43;4.03;;;;;;;28.96;nan;99398.06;5006730;28;20457;-78
2023/06/06 09:28:48;;;;;;;7.50;4.70;;;;;;;28.98;nan;99396.00;5007547;28;20479;-78
2023/06/06 09:31:30;;;;;;;5.80;5.27;;;;;;;29.19;nan;99398.31;5008097;28;20458;-79
2023/06/06 09:33:57;;;;;;;4.60;4.17;;;;;;;29.39;nan;99397.25;5007519;28;20486;-78
2023/06/06 09:36:24;;;;;;;7.10;4.43;;;;;;;29.50;nan;99396.50;5009089;28;20459;-78
2023/06/06 09:38:51;;;;;;;5.13;4.67;;;;;;;29.60;nan;99388.66;5008689;28;20958;-79
2023/06/06 09:41:17;;;;;;;7.40;5.23;;;;;;;29.46;nan;99385.31;5008102;28;20981;-78
2023/06/06 09:43:42;;;;;;;5.13;4.63;;;;;;;29.39;nan;99389.97;5011290;28;20460;-78
2023/06/06 09:46:07;;;;;;;8.50;4.70;;;;;;;29.42;nan;99383.25;5011643;28;20284;-78
2023/06/06 09:48:33;;;;;;;6.10;5.33;;;;;;;29.43;nan;99382.19;5010727;28;20207;-78
2023/06/06 09:50:58;;;;;;;6.07;4.63;;;;;;;29.42;nan;99389.50;5012325;28;20647;-78
2023/06/06 09:53:28;;;;;;;5.97;5.47;;;;;;;29.51;nan;99385.44;5010825;28;20239;-78
2023/06/06 09:55:58;;;;;;;4.63;4.23;;;;;;;29.67;nan;99384.00;5011502;28;20248;-79
2023/06/06 09:58:26;;;;;;;5.30;4.57;;;;;;;29.76;nan;99371.03;5011533;28;20975;-77
2023/06/06 10:00:58;;;;;;;5.53;4.00;;;;;;;29.82;nan;99370.09;5011101;28;20824;-77
2023/06/06 10:03:24;;;;;;;8.03;4.10;;;;;;;29.69;nan;99364.84;5010851;28;20458;-77
2023/06/06 10:05:51;;;;;;;4.80;4.33;;;;;;;29.55;nan;99362.28;5012312;28;20539;-77
2023/06/06 10:08:18;;;;;;;5.10;4.60;;;;;;;29.61;nan;99365.13;5009201;28;20516;-77
2023/06/06 10:10:49;;;;;;;11.40;5.23;;;;;;;29.81;nan;99364.91;5008657;28;20455;-77
2023/06/06 10:13:19;;;;;;;4.50;3.77;;;;;;;29.91;nan;99357.88;5010827;28;20632;-77
2023/06/06 10:15:45;;;;;;;5.03;4.30;;;;;;;30.10;nan;99357.81;5010698;28;20518;-77
2023/06/06 10:18:11;;;;;;;6.80;4.80;;;;;;;30.18;nan;99363.72;5010334;28;20477;-77
2023/06/06 10:20:38;;;;;;;4.90;4.30;;;;;;;30.22;nan;99358.69;5007888;28;20950;-76
2023/06/06 10:23:04;;;;;;;4.50;4.10;;;;;;;30.39;nan;99359.69;5009477;28;21083;-77
2023/06/06 10:25:30;;;;;;;5.90;5.00;;;;;;;30.57;nan;99355.22;5007136;28;20497;-80
2023/06/06 10:28:21;;;;;;;6.87;4.30;;;;;;;30.62;nan;99360.75;5010694;28;20224;-80
2023/06/06 10:31:14;;;;;;;4.30;3.90;;;;;;;30.74;nan;99361.63;5010935;28;20474;-78
2023/06/06 10:33:54;;;;;;;4.83;4.30;;;;;;;30.92;nan;99349.00;5011706;28;20466;-77
2023/06/06 10:36:19;;;;;;;4.23;3.83;;;;;;;31.03;nan;99351.72;5010563;28;20458;-77
2023/06/06 10:39:23;;;;;;;3.80;3.50;;;;;;;31.04;nan;99349.84;5009206;28;20455;-77
2023/06/06 10:42:05;;;;;;;4.50;3.83;;;;;;;31.11;nan;99349.69;5009631;28;20258;-77
2023/06/06 10:44:46;;;;;;;3.10;2.90;;;;;;;31.21;nan;99345.31;5009484;28;20494;-77
2023/06/06 10:47:20;;;;;;;5.77;3.17;;;;;;;31.30;nan;99341.19;5009412;28;20496;-76
2023/06/06 10:50:08;;;;;;;3.63;3.30;;;;;;;31.40;nan;99343.31;5010239;28;20524;-76
2023/06/06 10:53:01;;;;;;;3.47;3.17;;;;;;;31.51;nan;99333.47;5009351;28;20477;-77
2023/06/06 10:55:27;;;;;;;4.60;3.03;;;;;;;31.40;nan;99324.31;5010089;28;20983;-78
2023/06/06 10:57:53;;;;;;;4.70;3.67;;;;;;;31.34;nan;99322.53;5009523;28;20874;-78
2023/06/06 11:00:25;;;;;;;3.87;3.50;;;;;;;31.37;nan;99327.50;5010104;28;20200;-78
2023/06/06 11:02:58;;;;;;;4.40;4.00;;;;;;;31.35;nan;99331.47;5010163;28;20458;-78
2023/06/06 11:05:24;;;;;;;4.03;3.73;;;;;;;31.20;nan;99329.28;5009853;28;20545;-78
2023/06/06 11:07:54;;;;;;;3.60;3.27;;;;;;;31.02;nan;99328.38;5009732;28;20900;-79
2023/06/06 11:10:23;;;;;;;3.67;2.80;;;;;;;30.96;nan;99323.91;5009534;28;20478;-77
2023/06/06 11:12:50;;;;;;;3.27;2.73;;;;;;;31.01;nan;99321.31;5010775;28;20450;-78
2023/06/06 11:15:31;;;;;;;5.17;3.27;;;;;;;31.17;nan;99327.06;5009173;28;20458;-77
2023/06/06 11:18:02;;;;;;;3.60;2.93;;;;;;;31.32;nan;99308.38;5009682;28;20526;-78
2023/06/06 11:20:37;;;;;;;3.30;3.00;;;;;;;31.35;nan;99317.91;5009842;28;20508;-78
2023/06/06 11:23:03;;;;;;;3.13;2.93;;;;;;;31.23;nan;99304.38;5010412;28;20453;-78
2023/06/06 11:25:30;;;;;;;4.13;3.60;;;;;;;31.06;nan;99307.03;5010588;28;20469;-78
2023/06/06 11:27:57;;;;;;;3.63;2.97;;;;;;;30.91;nan;99312.13;5008750;28;20710;-78
2023/06/06 11:30:24;;;;;;;3.20;2.90;;;;;;;30.73;nan;99308.47;5008073;28;20512;-78
2023/06/06 11:32:51;;;;;;;2.53;2.33;;;;;;;30.63;nan;99313.63;5009569;28;21069;-79
2023/06/06 11:35:17;;;;;;;3.37;2.90;;;;;;;30.54;nan;99310.47;5009558;28;20450;-77
2023/06/06 11:37:43;;;;;;;3.43;3.13;;;;;;;30.43;nan;99316.69;5008865;28;20831;-78
2023/06/06 11:40:09;;;;;;;3.67;2.90;;;;;;;30.37;nan;99312.19;5010913;28;20879;-78
2023/06/06 11:42:35;;;;;;;3.90;3.30;;;;;;;30.31;nan;99305.03;5008168;28;21094;-77
2023/06/06 11:45:00;;;;;;;3.63;2.90;;;;;;;30.33;nan;99303.72;5009515;28;20462;-78
2023/06/06 11:47:33;;;;;;;3.53;2.60;;;;;;;30.27;nan;99304.63;5008597;28;20786;-78
2023/06/06 11:49:58;;;;;;;6.23;3.17;;;;;;;30.20;nan;99302.03;5009023;28;20330;-78
2023/06/06 11:52:24;;;;;;;4.27;3.00;;;;;;;30.35;nan;99298.06;5009936;28;20551;-78
2023/06/06 11:54:53;;;;;;;5.13;3.97;;;;;;;30.40;nan;99300.88;5007270;28;20590;-77
2023/06/06 11:57:19;;;;;;;6.90;3.40;;;;;;;30.25;nan;99297.84;5008688;28;20602;-78